Rechercher aéroport 
image banner adimage banner adimage banner ad
image banner ad

0CL3 - John Nichol's Field

Situé à Chula Vista, United States

ICAO - 0CL3, IATA -

Données fournies par Airmate  

Information générale

Coordonnées: N32°38'0" W116°53'25"
Élévation : 500 feet MSL.
Variation magnétique : 13° East
Voir autres Aéroports à California

Données opérationnelles

Special qualification required
Heure actuelle UTC:
Heure actuelle locale:
Météo à : KSDM - Brown Field Muni ( 11 km )
METAR: KSDM 191053Z AUTO 07004KT 10SM CLR 10/07 A2999 RMK AO2 SLP155 T01000072
Voir NOTAMs / SUP AIP / TFR affectant cet aéroport [VIEW]
Fréquences de communication: [VIEW]

Pistes:

Identifiant RWYQFULongueur (ft)Largeur (ft)SurfaceLDA (ft)
09203630ASPH
27203630ASPH

Coordonnées de l'aéroport

Adresse: Chula Vista United States

Vue satellite de 0CL3